createdAt,value
2022-10-07T00:00:11.047Z,78.65
2022-10-07T00:02:38.953Z,78.99
2022-10-07T00:05:06.212Z,79.33
2022-10-07T00:07:33.105Z,78.69
2022-10-07T00:09:59.830Z,78.99
2022-10-07T00:12:26.769Z,78.90
2022-10-07T00:14:54.076Z,79.02
2022-10-07T00:17:23.220Z,79.24
2022-10-07T00:19:50.477Z,79.65
2022-10-07T00:22:17.351Z,79.66
2022-10-07T00:24:44.492Z,79.84
2022-10-07T00:27:11.716Z,79.86
2022-10-07T00:29:38.552Z,79.80
2022-10-07T00:32:05.335Z,79.74
2022-10-07T00:34:34.901Z,80.53
2022-10-07T00:37:04.622Z,80.02
2022-10-07T00:39:31.668Z,80.13
2022-10-07T00:41:58.610Z,79.88
2022-10-07T00:44:39.740Z,80.29
2022-10-07T00:47:12.400Z,80.62
2022-10-07T00:52:35.060Z,80.38
2022-10-07T00:55:08.164Z,80.13
2022-10-07T00:57:36.599Z,80.67
2022-10-07T01:00:05.486Z,80.59
2022-10-07T01:02:36.166Z,80.77
2022-10-07T01:05:08.218Z,80.71
2022-10-07T01:07:35.865Z,80.70
2022-10-07T01:10:08.198Z,80.33
2022-10-07T01:12:47.333Z,80.79
2022-10-07T01:15:22.326Z,80.66
2022-10-07T01:18:01.842Z,80.54
2022-10-07T01:20:38.488Z,80.57
2022-10-07T01:23:20.913Z,80.58
2022-10-07T01:26:17.354Z,80.43
2022-10-07T01:28:49.816Z,81.01
2022-10-07T01:31:31.860Z,80.60
2022-10-07T01:34:01.374Z,81.35
2022-10-07T01:36:28.733Z,80.92
2022-10-07T01:39:00.704Z,80.88
2022-10-07T01:41:30.241Z,80.79
2022-10-07T01:44:00.406Z,80.88
2022-10-07T01:46:28.251Z,81.13
2022-10-07T01:48:56.222Z,81.34
2022-10-07T01:51:26.379Z,81.41
2022-10-07T01:54:01.874Z,81.98
2022-10-07T01:56:43.088Z,81.82
2022-10-07T01:59:23.474Z,83.15
2022-10-07T02:02:02.192Z,81.87
2022-10-07T02:04:42.661Z,82.43
2022-10-07T02:07:21.001Z,81.99
2022-10-07T02:09:56.588Z,82.13
2022-10-07T02:12:30.584Z,81.86
2022-10-07T02:15:16.554Z,82.03
2022-10-07T02:17:48.933Z,82.15
2022-10-07T02:20:19.553Z,82.24
2022-10-07T02:22:48.961Z,82.27
2022-10-07T02:25:22.848Z,82.71
2022-10-07T02:27:53.896Z,82.50
2022-10-07T02:30:24.790Z,82.52
2022-10-07T02:32:55.600Z,82.26
2022-10-07T02:35:36.362Z,83.08
2022-10-07T02:38:13.561Z,82.71
2022-10-07T02:40:48.798Z,82.84
2022-10-07T02:43:20.557Z,82.99
2022-10-07T02:45:54.884Z,83.43
2022-10-07T02:48:26.229Z,83.39
2022-10-07T02:50:56.736Z,83.98
2022-10-07T02:53:28.639Z,84.05
2022-10-07T02:55:59.586Z,84.17
2022-10-07T02:58:27.640Z,83.87
2022-10-07T03:00:59.136Z,84.05
2022-10-07T03:03:26.243Z,85.88
2022-10-07T03:05:53.681Z,84.94
2022-10-07T03:08:22.504Z,84.72
2022-10-07T03:10:49.215Z,85.18
2022-10-07T03:13:17.392Z,85.15
2022-10-07T03:15:46.473Z,84.94
2022-10-07T03:18:14.744Z,85.22
2022-10-07T03:20:41.805Z,85.36
2022-10-07T03:23:08.520Z,85.37
2022-10-07T03:25:35.900Z,85.30
2022-10-07T03:28:05.396Z,85.59
2022-10-07T03:30:32.046Z,85.80
2022-10-07T03:33:06.971Z,86.21
2022-10-07T03:35:40.197Z,85.57
2022-10-07T03:38:07.233Z,86.08
2022-10-07T03:40:34.230Z,86.17
2022-10-07T03:43:03.083Z,86.24
2022-10-07T03:45:32.862Z,86.29
2022-10-07T03:48:00.951Z,86.61
2022-10-07T03:50:28.036Z,86.71
2022-10-07T03:52:59.002Z,87.19
2022-10-07T03:55:26.088Z,87.07
2022-10-07T03:57:58.405Z,87.03
2022-10-07T04:00:32.313Z,86.97
2022-10-07T04:02:58.993Z,87.26
2022-10-07T04:05:26.059Z,87.33
2022-10-07T04:07:53.439Z,87.20
2022-10-07T04:10:23.865Z,87.58
2022-10-07T04:12:51.563Z,87.26
2022-10-07T04:15:18.764Z,87.49
2022-10-07T04:17:47.544Z,87.86
2022-10-07T04:20:16.304Z,87.60
2022-10-07T04:22:44.976Z,88.67
2022-10-07T04:25:12.604Z,88.44
2022-10-07T04:27:58.176Z,88.44
2022-10-07T04:30:27.196Z,88.14
2022-10-07T04:32:55.106Z,88.32
2022-10-07T04:35:23.081Z,89.01
2022-10-07T04:37:50.546Z,89.60
2022-10-07T04:40:19.050Z,89.04
2022-10-07T04:42:48.076Z,88.85
2022-10-07T04:45:15.525Z,88.78
2022-10-07T04:47:46.583Z,88.70
2022-10-07T04:50:15.746Z,91.10
2022-10-07T04:52:43.324Z,89.78
2022-10-07T04:55:12.639Z,89.54
2022-10-07T04:57:48.238Z,89.98
2022-10-07T05:00:19.636Z,90.59
2022-10-07T05:02:47.793Z,90.07
2022-10-07T05:05:19.492Z,90.94
2022-10-07T05:07:52.442Z,90.55
2022-10-07T05:10:21.325Z,90.96
2022-10-07T05:12:55.127Z,91.68
2022-10-07T05:15:24.245Z,90.76
2022-10-07T05:17:51.944Z,90.93
2022-10-07T05:20:18.942Z,90.27
2022-10-07T05:22:45.868Z,90.61
2022-10-07T05:25:14.119Z,90.74
2022-10-07T05:27:41.071Z,90.79
2022-10-07T05:30:10.866Z,90.83
2022-10-07T05:32:38.922Z,91.27
2022-10-07T05:35:10.288Z,91.22
2022-10-07T05:37:37.139Z,90.89
2022-10-07T05:40:06.520Z,91.10
2022-10-07T05:42:33.530Z,91.75
2022-10-07T05:45:00.871Z,91.59
2022-10-07T05:47:27.850Z,91.36
2022-10-07T05:49:56.156Z,91.26
2022-10-07T05:52:23.243Z,91.88
2022-10-07T05:54:50.194Z,91.84
2022-10-07T05:57:17.174Z,91.52
2022-10-07T05:59:43.929Z,91.61
2022-10-07T06:02:14.599Z,91.26
2022-10-07T06:04:41.602Z,91.64
2022-10-07T06:07:10.013Z,92.11
2022-10-07T06:09:36.663Z,91.79
2022-10-07T06:12:04.257Z,91.64
2022-10-07T06:14:30.999Z,92.18
2022-10-07T06:16:58.507Z,91.87
2022-10-07T06:19:25.510Z,92.15
2022-10-07T06:21:52.216Z,92.07
2022-10-07T06:24:20.663Z,92.74
2022-10-07T06:26:49.094Z,93.09
2022-10-07T06:29:15.776Z,92.74
2022-10-07T06:31:42.501Z,93.25
2022-10-07T06:34:09.187Z,92.52
2022-10-07T06:36:35.826Z,92.52
2022-10-07T06:39:02.932Z,92.56
2022-10-07T06:41:33.420Z,92.18
2022-10-07T06:44:01.593Z,92.63
2022-10-07T06:46:29.811Z,92.50
2022-10-07T06:48:56.685Z,92.61
2022-10-07T06:51:23.503Z,92.15
2022-10-07T06:53:52.552Z,92.66
2022-10-07T06:56:19.511Z,92.42
2022-10-07T06:58:47.675Z,92.66
2022-10-07T07:01:14.657Z,92.59
2022-10-07T07:06:25.211Z,92.82
2022-10-07T07:11:56.632Z,92.37
2022-10-07T07:15:14.503Z,92.66
2022-10-07T07:17:41.385Z,92.22
2022-10-07T07:20:11.370Z,92.20
2022-10-07T07:22:42.730Z,92.17
2022-10-07T07:25:09.622Z,92.88
2022-10-07T07:28:06.440Z,91.96
2022-10-07T07:30:35.400Z,91.84
2022-10-07T07:33:01.983Z,92.31
2022-10-07T07:35:30.264Z,91.76
2022-10-07T07:37:56.963Z,91.99
2022-10-07T07:40:23.717Z,92.04
2022-10-07T07:42:50.584Z,91.60
2022-10-07T07:45:17.749Z,91.97
2022-10-07T08:20:06.862Z,91.37
2022-10-07T08:23:07.205Z,91.04
2022-10-07T08:25:34.574Z,91.27
2022-10-07T08:28:06.712Z,91.12
2022-10-07T08:48:05.292Z,89.22
2022-10-07T08:54:03.337Z,89.37
2022-10-07T08:56:38.387Z,89.36
2022-10-07T09:22:16.112Z,87.94
2022-10-07T09:52:58.577Z,83.12
2022-10-07T09:55:32.296Z,84.48
2022-10-07T09:58:07.639Z,84.07
2022-10-07T10:00:49.367Z,83.59
2022-10-07T10:03:29.465Z,83.79
2022-10-07T10:06:00.446Z,83.25
2022-10-07T10:08:33.242Z,83.32
2022-10-07T10:11:06.345Z,83.08
2022-10-07T10:13:35.450Z,83.26
2022-10-07T10:16:05.136Z,82.72
2022-10-07T10:21:31.185Z,82.50
2022-10-07T10:24:12.464Z,80.53
2022-10-07T10:26:54.490Z,80.93
2022-10-07T10:29:48.276Z,79.07
2022-10-07T10:32:34.440Z,78.91
2022-10-07T10:35:14.704Z,79.13
2022-10-07T10:38:09.811Z,78.53
2022-10-07T10:41:02.441Z,76.55
2022-10-07T10:43:47.030Z,77.74
2022-10-07T10:49:48.352Z,76.05
2022-10-07T10:52:48.774Z,75.93
2022-10-07T10:55:55.120Z,77.29
2022-10-07T11:02:18.774Z,76.01
2022-10-07T11:05:24.068Z,75.59
2022-10-07T11:08:18.826Z,74.50
2022-10-07T11:11:00.278Z,75.31
2022-10-07T11:13:36.578Z,73.56
2022-10-07T11:16:33.709Z,74.16
2022-10-07T11:20:03.122Z,72.23
2022-10-07T11:23:09.412Z,73.51
2022-10-07T11:26:10.622Z,72.85
2022-10-07T11:29:03.236Z,73.82
2022-10-07T11:31:49.056Z,73.01
2022-10-07T11:34:29.702Z,71.59
2022-10-07T11:37:59.724Z,70.91
2022-10-07T11:40:49.662Z,72.05
2022-10-07T11:43:38.407Z,71.62
2022-10-07T11:49:11.790Z,71.75
2022-10-07T11:51:51.369Z,70.51
2022-10-07T11:54:34.350Z,71.77
2022-10-07T12:08:06.676Z,71.87
2022-10-07T12:15:09.200Z,70.35
2022-10-07T12:18:32.128Z,71.02
2022-10-07T12:21:27.303Z,70.87
2022-10-07T12:25:00.365Z,71.13
2022-10-07T12:27:32.741Z,71.30
2022-10-07T12:31:17.885Z,70.61
2022-10-07T12:34:22.077Z,70.80
2022-10-07T12:44:04.832Z,71.60
2022-10-07T12:47:09.119Z,71.87
2022-10-07T12:53:05.887Z,71.51
2022-10-07T12:55:48.086Z,71.18
2022-10-07T12:58:58.847Z,71.07
2022-10-07T13:09:39.114Z,70.72
2022-10-07T13:16:41.396Z,70.47
2022-10-07T13:19:56.594Z,70.38
2022-10-07T13:23:27.277Z,69.46
2022-10-07T13:33:33.746Z,67.49
2022-10-07T13:37:07.088Z,67.39
2022-10-07T13:39:48.153Z,67.53
2022-10-07T13:42:21.361Z,66.57
2022-10-07T13:45:07.773Z,67.00
2022-10-07T13:47:59.002Z,67.38
2022-10-07T13:50:37.380Z,66.65
2022-10-07T13:53:20.779Z,63.90
2022-10-07T13:59:18.557Z,60.37
2022-10-07T14:02:15.679Z,59.28
2022-10-07T14:05:25.249Z,59.34
2022-10-07T14:08:25.742Z,60.52
2022-10-07T14:14:44.242Z,57.42
2022-10-07T14:21:20.420Z,58.46
2022-10-07T14:30:53.284Z,61.99
2022-10-07T14:40:31.777Z,63.64
2022-10-07T14:43:39.616Z,64.31
2022-10-07T14:46:31.707Z,64.96
2022-10-07T14:49:53.821Z,65.35
2022-10-07T14:52:52.837Z,65.20
2022-10-07T14:55:36.151Z,65.80
2022-10-07T14:58:32.261Z,65.78
2022-10-07T15:01:11.214Z,66.13
2022-10-07T15:04:19.677Z,66.53
2022-10-07T15:07:19.019Z,66.94
2022-10-07T15:10:13.892Z,67.27
2022-10-07T15:16:37.066Z,67.67
2022-10-07T15:20:25.046Z,68.69
2022-10-07T15:34:22.029Z,68.62
2022-10-07T15:40:27.600Z,68.43
2022-10-07T15:47:00.273Z,68.62
2022-10-07T15:49:59.710Z,68.83
2022-10-07T15:52:30.770Z,69.45
2022-10-07T15:55:07.250Z,69.56
2022-10-07T16:01:06.450Z,69.54
2022-10-07T16:04:05.233Z,69.87
2022-10-07T16:07:11.159Z,70.38
2022-10-07T16:20:02.111Z,71.42
2022-10-07T16:42:42.561Z,72.00
2022-10-07T16:45:19.361Z,71.88
2022-10-07T16:47:54.504Z,71.86
2022-10-07T16:56:58.836Z,72.87
2022-10-07T16:59:33.515Z,72.36
2022-10-07T17:02:33.279Z,72.55
2022-10-07T17:05:05.594Z,72.19
2022-10-07T17:07:53.050Z,72.26
2022-10-07T17:10:30.117Z,72.74
2022-10-07T17:19:39.976Z,72.92
2022-10-07T17:32:45.386Z,74.28
2022-10-07T17:35:28.030Z,74.39
2022-10-07T17:39:09.989Z,74.65
2022-10-07T17:41:57.641Z,74.57
2022-10-07T17:48:04.197Z,74.41
2022-10-07T17:50:54.729Z,74.63
2022-10-07T18:02:21.066Z,75.64
2022-10-07T18:05:15.036Z,75.49
2022-10-07T18:09:09.493Z,75.61
2022-10-07T18:15:13.298Z,75.63
2022-10-07T18:18:26.175Z,75.56
2022-10-07T18:24:16.377Z,75.77
2022-10-07T18:27:02.380Z,75.83
2022-10-07T18:30:14.069Z,76.09
2022-10-07T18:33:01.541Z,76.27
2022-10-07T18:35:51.958Z,76.15
2022-10-07T18:38:41.441Z,76.14
2022-10-07T18:41:28.688Z,76.96
2022-10-07T18:44:11.952Z,76.62
2022-10-07T18:46:51.599Z,76.46
2022-10-07T18:49:31.246Z,76.52
2022-10-07T18:52:18.498Z,76.81
2022-10-07T18:54:56.159Z,76.69
2022-10-07T18:57:26.959Z,76.83
2022-10-07T19:00:05.998Z,76.94
2022-10-07T19:02:43.239Z,77.14
2022-10-07T19:05:26.560Z,77.02
2022-10-07T19:08:27.995Z,77.59
2022-10-07T19:11:24.600Z,77.95
2022-10-07T19:14:21.427Z,77.42
2022-10-07T19:17:11.959Z,77.81
2022-10-07T19:22:53.645Z,78.05
2022-10-07T19:25:40.198Z,77.85
2022-10-07T19:28:28.355Z,78.32
2022-10-07T19:30:59.495Z,78.76
2022-10-07T19:33:54.554Z,78.26
2022-10-07T19:36:31.459Z,78.77
2022-10-07T19:54:06.944Z,79.23
2022-10-07T19:57:05.056Z,79.40
2022-10-07T19:59:56.757Z,79.89
2022-10-07T20:03:08.047Z,81.37
2022-10-07T20:06:02.916Z,79.82
2022-10-07T20:11:39.202Z,80.03
2022-10-07T20:14:17.376Z,80.18
2022-10-07T20:17:03.429Z,80.40
2022-10-07T20:19:51.778Z,80.82
2022-10-07T20:22:31.949Z,80.24
2022-10-07T20:26:26.875Z,81.07
2022-10-07T20:28:39.580Z,81.28
2022-10-07T20:58:59.239Z,80.94
2022-10-07T21:01:26.233Z,80.59
2022-10-07T21:03:54.738Z,80.56
2022-10-07T21:04:05.884Z,80.89
2022-10-07T21:06:21.579Z,80.84
2022-10-07T21:08:56.739Z,80.91
2022-10-07T21:11:33.880Z,81.10
2022-10-07T21:14:04.164Z,81.18
2022-10-07T21:16:50.379Z,81.22
2022-10-07T21:19:30.575Z,81.01
2022-10-07T21:22:21.125Z,81.07
2022-10-07T21:24:58.142Z,81.17
2022-10-07T21:27:36.793Z,80.88
2022-10-07T21:30:16.356Z,80.71
2022-10-07T21:33:03.615Z,80.88
2022-10-07T21:35:58.331Z,80.98
2022-10-07T21:41:48.177Z,80.94
2022-10-07T21:44:21.752Z,81.00
2022-10-07T21:46:52.435Z,80.50
2022-10-07T21:49:42.988Z,80.58
2022-10-07T21:52:28.247Z,80.57
2022-10-07T21:55:15.282Z,80.44
2022-10-07T22:07:29.993Z,80.07
2022-10-07T22:10:01.753Z,80.06
2022-10-07T22:12:33.270Z,80.04
2022-10-07T22:15:00.127Z,80.50
2022-10-07T22:17:34.740Z,80.24
2022-10-07T22:20:16.356Z,79.91
2022-10-07T22:22:48.947Z,80.64
2022-10-07T22:25:21.336Z,80.51
2022-10-07T22:28:18.243Z,80.30
2022-10-07T22:30:57.299Z,80.52
2022-10-07T22:33:26.411Z,80.53
2022-10-07T22:36:00.004Z,80.64
2022-10-07T22:38:38.430Z,80.64
2022-10-07T22:41:06.271Z,81.08
2022-10-07T22:43:40.368Z,81.65
2022-10-07T22:46:25.619Z,82.26
2022-10-07T22:49:00.883Z,83.14
2022-10-07T22:51:30.591Z,84.51
2022-10-07T22:54:08.152Z,84.48
2022-10-07T22:56:53.334Z,84.54
2022-10-07T22:59:31.850Z,86.01
2022-10-07T23:02:10.362Z,86.31
2022-10-07T23:04:49.172Z,86.48
2022-10-07T23:07:17.329Z,87.16
2022-10-07T23:09:51.007Z,88.10
2022-10-07T23:12:22.037Z,88.10
2022-10-07T23:14:55.853Z,88.75
2022-10-07T23:17:34.624Z,89.04
2022-10-07T23:20:22.121Z,88.42
2022-10-07T23:22:59.834Z,88.47
2022-10-07T23:25:26.768Z,88.63
2022-10-07T23:27:57.644Z,88.69
2022-10-07T23:30:32.382Z,89.50
2022-10-07T23:33:02.702Z,89.50
2022-10-07T23:35:40.250Z,89.79
2022-10-07T23:38:14.893Z,89.60
2022-10-07T23:41:04.458Z,89.93
2022-10-07T23:43:40.546Z,89.50
2022-10-07T23:46:13.002Z,90.09
2022-10-07T23:49:02.387Z,89.84
2022-10-07T23:51:49.548Z,89.45
2022-10-07T23:54:19.085Z,89.83
2022-10-07T23:56:46.026Z,90.15
2022-10-07T23:59:17.894Z,89.84
